Time;durP1;ratioP1;P1;durP2;ratioP2;P2;SDS_P1;SDS_P2;PMS_P1;PMS_P2;Temp;Humidity;BMP_temperature;BMP_pressure;BME280_temperature;BME280_humidity;BME280_pressure;Samples;Min_cycle;Max_cycle;Signal;HPM_P1;HPM_P2
2023/03/17 04:01:04;;;;;;;3.40;1.40;;;6.40;73.50;;;;;;5805765;23;20490;-72
2023/03/17 04:03:31;;;;;;;2.57;1.77;;;6.30;73.60;;;;;;4974668;28;20435;-72
2023/03/17 04:05:58;;;;;;;2.73;1.63;;;6.20;74.00;;;;;;4975014;28;20442;-72
2023/03/17 04:08:26;;;;;;;2.43;1.57;;;6.10;74.60;;;;;;4974668;28;20513;-72
2023/03/17 04:10:52;;;;;;;2.40;1.57;;;6.00;74.60;;;;;;4974733;28;20470;-73
2023/03/17 04:13:22;;;;;;;3.30;1.83;;;5.90;74.80;;;;;;4974928;28;20536;-72
2023/03/17 04:15:49;;;;;;;2.67;1.60;;;6.00;74.10;;;;;;4974630;28;20513;-72
2023/03/17 04:18:17;;;;;;;2.60;1.57;;;6.00;74.30;;;;;;4974497;28;20800;-72
2023/03/17 04:20:44;;;;;;;2.93;1.70;;;6.10;73.70;;;;;;4979953;28;20830;-72
2023/03/17 04:23:10;;;;;;;2.40;1.40;;;6.10;73.10;;;;;;4982215;28;20443;-71
2023/03/17 04:25:37;;;;;;;2.40;1.50;;;6.30;70.10;;;;;;4978650;28;20482;-72
2023/03/17 04:28:05;;;;;;;2.67;1.53;;;6.30;68.70;;;;;;4978557;28;20958;-72
2023/03/17 04:30:32;;;;;;;2.70;1.43;;;6.40;67.00;;;;;;4978434;28;20458;-72
2023/03/17 04:32:58;;;;;;;3.07;1.53;;;6.50;66.00;;;;;;4977825;28;20530;-72
2023/03/17 04:35:26;;;;;;;2.70;1.53;;;6.70;64.30;;;;;;4978206;28;20497;-72
2023/03/17 04:37:53;;;;;;;2.50;1.50;;;6.80;64.90;;;;;;4978311;28;20454;-70
2023/03/17 04:40:20;;;;;;;2.47;1.50;;;7.00;64.30;;;;;;4977751;28;20485;-73
2023/03/17 04:42:47;;;;;;;2.50;1.43;;;7.10;63.90;;;;;;4978122;28;20446;-72
2023/03/17 04:45:15;;;;;;;3.77;1.80;;;7.20;64.30;;;;;;4977915;28;20446;-72
2023/03/17 04:47:42;;;;;;;2.90;1.67;;;7.30;63.90;;;;;;4977923;28;20454;-72
2023/03/17 04:50:10;;;;;;;2.20;1.30;;;7.30;66.30;;;;;;4977851;28;20485;-72
2023/03/17 04:52:39;;;;;;;4.00;2.00;;;7.20;67.60;;;;;;4977500;28;20529;-72
2023/03/17 04:55:08;;;;;;;2.70;1.80;;;7.10;68.10;;;;;;4977739;28;20569;-72
2023/03/17 04:57:34;;;;;;;2.60;1.70;;;7.00;68.40;;;;;;4977474;28;20947;-72
2023/03/17 05:00:01;;;;;;;2.90;1.67;;;7.10;68.10;;;;;;4977979;28;20450;-71
2023/03/17 05:02:28;;;;;;;2.70;1.77;;;7.10;68.20;;;;;;4977514;28;20482;-72
2023/03/17 05:04:54;;;;;;;2.80;1.77;;;7.20;68.10;;;;;;4977666;28;20496;-72
2023/03/17 05:07:21;;;;;;;2.77;1.53;;;7.10;68.40;;;;;;4977579;28;20446;-72
2023/03/17 05:09:50;;;;;;;2.60;1.40;;;7.10;68.40;;;;;;4977531;28;20516;-72
2023/03/17 05:12:17;;;;;;;2.70;1.50;;;7.10;68.40;;;;;;4977967;28;20508;-72
2023/03/17 05:14:43;;;;;;;2.80;1.87;;;7.10;68.40;;;;;;4977416;28;20559;-72
2023/03/17 05:17:10;;;;;;;2.50;1.63;;;7.00;68.70;;;;;;4977406;28;20450;-72
2023/03/17 05:19:37;;;;;;;2.50;1.50;;;7.00;68.80;;;;;;4977473;28;20843;-72
2023/03/17 05:22:04;;;;;;;2.70;1.60;;;7.10;68.80;;;;;;4977243;28;20470;-72
2023/03/17 05:24:30;;;;;;;3.57;1.80;;;7.10;68.70;;;;;;4977320;28;20476;-72
2023/03/17 05:26:58;;;;;;;3.27;1.37;;;7.10;68.60;;;;;;4977140;28;20447;-72
2023/03/17 05:29:25;;;;;;;2.40;1.50;;;7.10;68.40;;;;;;4977530;28;20442;-72
2023/03/17 05:31:52;;;;;;;3.33;1.90;;;7.10;68.40;;;;;;4976795;28;20973;-72
2023/03/17 05:34:19;;;;;;;4.00;1.90;;;7.00;68.40;;;;;;4977066;28;20477;-72
2023/03/17 05:36:46;;;;;;;2.30;1.50;;;7.00;68.30;;;;;;4977116;28;20812;-72
2023/03/17 05:39:13;;;;;;;2.57;1.53;;;7.00;68.40;;;;;;4977032;28;20541;-71
2023/03/17 05:41:39;;;;;;;2.97;1.50;;;7.00;68.60;;;;;;4976957;28;20505;-72
2023/03/17 05:44:08;;;;;;;2.60;1.70;;;6.80;68.60;;;;;;4977318;28;20449;-71
2023/03/17 05:46:35;;;;;;;4.03;1.50;;;6.80;68.80;;;;;;4977094;28;20481;-71
2023/03/17 05:49:02;;;;;;;3.17;2.10;;;6.90;68.60;;;;;;4976893;28;20853;-71
2023/03/17 05:51:29;;;;;;;2.70;1.57;;;6.90;68.70;;;;;;4976719;28;20474;-72
2023/03/17 05:53:55;;;;;;;2.50;1.53;;;7.00;68.70;;;;;;4976740;28;20482;-71
2023/03/17 05:56:23;;;;;;;3.17;1.60;;;7.00;68.80;;;;;;4976763;28;20529;-72
2023/03/17 05:58:50;;;;;;;3.67;1.87;;;7.00;68.70;;;;;;4976710;28;20461;-72
2023/03/17 06:01:18;;;;;;;3.77;2.10;;;7.00;68.80;;;;;;4976375;28;20856;-72
2023/03/17 06:03:45;;;;;;;2.80;1.70;;;7.10;68.50;;;;;;4976361;28;20872;-72
2023/03/17 06:06:12;;;;;;;2.93;1.67;;;7.20;68.50;;;;;;4976616;28;20509;-72
2023/03/17 06:08:39;;;;;;;2.70;1.87;;;7.30;68.50;;;;;;4976638;28;20446;-72
2023/03/17 06:11:06;;;;;;;3.70;2.13;;;7.20;68.30;;;;;;4976430;28;20470;-72
2023/03/17 06:13:32;;;;;;;3.27;1.90;;;7.10;69.00;;;;;;4976108;28;21013;-72
2023/03/17 06:15:59;;;;;;;2.70;1.70;;;7.30;69.00;;;;;;4976410;28;20454;-72
2023/03/17 06:18:27;;;;;;;2.57;1.50;;;7.50;68.60;;;;;;4976378;28;20446;-72
2023/03/17 06:20:54;;;;;;;2.87;1.50;;;7.80;67.70;;;;;;4976208;28;20477;-71
2023/03/17 06:23:22;;;;;;;3.27;1.73;;;7.90;66.90;;;;;;4976803;28;20454;-72
2023/03/17 06:25:49;;;;;;;2.80;1.60;;;7.90;67.20;;;;;;4976204;28;20446;-72
2023/03/17 06:28:16;;;;;;;3.50;1.90;;;8.30;66.60;;;;;;4975994;28;20792;-72
2023/03/17 06:30:42;;;;;;;2.30;1.37;;;8.50;65.60;;;;;;4976066;28;20521;-72
2023/03/17 06:33:09;;;;;;;2.97;1.50;;;8.70;63.80;;;;;;4976047;28;20473;-72
2023/03/17 06:35:37;;;;;;;2.50;1.40;;;8.90;62.20;;;;;;4975721;28;20995;-72
2023/03/17 06:38:04;;;;;;;2.33;1.40;;;9.10;59.90;;;;;;4975624;28;20947;-72
2023/03/17 06:40:32;;;;;;;2.47;1.47;;;9.60;57.90;;;;;;4975660;28;20546;-73
2023/03/17 06:43:00;;;;;;;2.17;1.23;;;10.40;59.70;;;;;;4975506;28;20450;-72
2023/03/17 06:45:27;;;;;;;3.60;1.67;;;11.80;53.80;;;;;;4975830;28;20442;-72
2023/03/17 06:47:54;;;;;;;2.20;1.37;;;13.60;51.60;;;;;;4975774;28;20446;-71
2023/03/17 06:50:21;;;;;;;2.70;1.60;;;15.70;48.00;;;;;;4975756;28;20457;-73
2023/03/17 06:52:49;;;;;;;2.50;1.60;;;17.30;42.40;;;;;;4975417;28;20956;-72
2023/03/17 06:55:16;;;;;;;2.50;1.60;;;18.30;40.60;;;;;;4975194;28;21022;-73
2023/03/17 06:57:43;;;;;;;3.03;1.63;;;19.50;40.80;;;;;;4975535;28;20446;-73
2023/03/17 07:00:12;;;;;;;2.27;1.47;;;20.60;41.00;;;;;;4975555;28;20454;-72
2023/03/17 07:02:40;;;;;;;3.27;1.60;;;21.60;39.90;;;;;;4975278;28;21048;-73
2023/03/17 07:05:07;;;;;;;3.93;1.50;;;21.70;39.30;;;;;;4975437;28;20804;-72
2023/03/17 07:07:35;;;;;;;3.80;1.93;;;21.70;38.20;;;;;;4975295;28;20530;-73
2023/03/17 07:10:04;;;;;;;4.50;1.70;;;21.60;38.20;;;;;;4975326;28;20485;-72
2023/03/17 07:12:32;;;;;;;3.00;1.77;;;21.50;39.00;;;;;;4975284;28;20474;-72
2023/03/17 07:14:58;;;;;;;2.60;1.57;;;21.90;38.30;;;;;;4975060;28;20517;-72
2023/03/17 07:17:25;;;;;;;2.67;1.37;;;22.10;37.70;;;;;;4975399;28;20459;-72
2023/03/17 07:19:52;;;;;;;2.40;1.50;;;22.20;38.00;;;;;;4975443;28;20525;-73
2023/03/17 07:22:19;;;;;;;3.00;1.83;;;21.90;38.70;;;;;;4975533;28;20867;-72
2023/03/17 07:24:47;;;;;;;3.20;1.73;;;21.60;39.00;;;;;;4974954;28;21014;-72
2023/03/17 07:27:16;;;;;;;3.40;1.77;;;20.70;40.10;;;;;;4975302;28;20482;-73
2023/03/17 07:29:42;;;;;;;2.90;1.77;;;19.80;40.80;;;;;;4975463;28;20450;-73
2023/03/17 07:32:09;;;;;;;2.90;1.97;;;19.60;41.70;;;;;;4975464;28;20466;-74
2023/03/17 07:34:36;;;;;;;2.80;1.73;;;19.70;41.90;;;;;;4975051;28;20855;-73
2023/03/17 07:37:04;;;;;;;2.20;1.30;;;19.70;41.30;;;;;;4975003;28;20819;-72
2023/03/17 07:39:30;;;;;;;2.60;1.27;;;18.90;39.10;;;;;;4975273;28;20521;-73
2023/03/17 07:41:57;;;;;;;2.80;1.33;;;18.50;38.60;;;;;;4974924;28;20466;-71
2023/03/17 07:44:26;;;;;;;3.23;1.60;;;17.70;39.40;;;;;;4975054;28;20443;-72
2023/03/17 07:46:53;;;;;;;2.20;1.40;;;16.30;40.90;;;;;;4974903;28;20549;-72
2023/03/17 07:49:20;;;;;;;2.40;1.40;;;15.70;42.70;;;;;;4975140;28;20446;-72
2023/03/17 07:51:47;;;;;;;2.57;1.20;;;15.20;43.30;;;;;;4974873;28;20554;-71
2023/03/17 07:54:14;;;;;;;2.60;1.40;;;15.10;44.50;;;;;;4974657;28;20486;-73
2023/03/17 07:56:41;;;;;;;3.20;1.47;;;14.80;45.10;;;;;;4974901;28;20461;-74
2023/03/17 07:59:09;;;;;;;2.70;1.20;;;14.50;45.50;;;;;;4974821;28;20457;-72
2023/03/17 08:01:38;;;;;;;3.83;1.73;;;14.60;47.50;;;;;;4974518;28;20486;-73
2023/03/17 08:04:06;;;;;;;2.50;1.30;;;14.50;48.10;;;;;;4974579;28;20889;-73
2023/03/17 08:06:32;;;;;;;2.00;1.07;;;14.60;48.50;;;;;;4974658;28;20488;-72
2023/03/17 08:08:59;;;;;;;2.70;1.50;;;14.50;47.10;;;;;;4974225;28;20446;-72
2023/03/17 08:11:26;;;;;;;2.20;1.17;;;14.10;47.00;;;;;;4974488;28;20470;-72
2023/03/17 08:13:53;;;;;;;2.70;1.10;;;13.90;48.10;;;;;;4974545;28;20829;-71
2023/03/17 08:16:20;;;;;;;2.10;1.00;;;14.10;49.30;;;;;;4974066;28;20999;-72
2023/03/17 08:18:48;;;;;;;2.50;1.40;;;14.40;49.30;;;;;;4974463;28;20454;-72
2023/03/17 08:21:15;;;;;;;2.10;1.00;;;14.60;47.40;;;;;;4974293;28;20485;-73
2023/03/17 08:23:42;;;;;;;4.10;1.10;;;14.60;46.30;;;;;;4974213;28;20454;-72
2023/03/17 08:26:09;;;;;;;3.07;1.10;;;14.60;45.40;;;;;;4974177;28;20446;-72
2023/03/17 08:28:36;;;;;;;2.20;1.00;;;14.20;45.70;;;;;;4974027;28;20454;-72
2023/03/17 08:31:14;;;;;;;2.10;0.90;;;14.30;47.30;;;;;;4974389;28;20522;-72
2023/03/17 08:33:41;;;;;;;2.53;1.13;;;14.00;45.50;;;;;;4974320;28;20446;-72
2023/03/17 08:36:11;;;;;;;2.43;1.10;;;13.90;45.60;;;;;;4974113;28;20573;-71
2023/03/17 08:38:40;;;;;;;2.23;1.20;;;13.70;45.90;;;;;;4974558;28;20477;-72
2023/03/17 08:41:09;;;;;;;2.30;1.17;;;13.40;47.20;;;;;;4973910;28;21002;-72
2023/03/17 08:43:37;;;;;;;2.20;1.00;;;13.60;47.30;;;;;;4974208;28;20454;-73
2023/03/17 08:46:07;;;;;;;4.10;1.30;;;13.90;48.50;;;;;;4974375;28;20500;-72
2023/03/17 08:48:35;;;;;;;3.37;1.17;;;14.10;47.00;;;;;;4974468;28;20457;-73
2023/03/17 08:51:02;;;;;;;2.40;1.20;;;14.10;45.50;;;;;;4973994;28;20549;-74
2023/03/17 08:53:30;;;;;;;4.77;1.10;;;14.10;45.50;;;;;;4974363;28;20446;-73
2023/03/17 08:55:57;;;;;;;2.40;1.27;;;14.20;46.00;;;;;;4973637;28;20922;-71
2023/03/17 08:58:24;;;;;;;2.30;1.00;;;14.30;47.00;;;;;;4973794;28;20450;-72
2023/03/17 09:00:52;;;;;;;2.30;1.13;;;14.60;46.70;;;;;;4973854;28;20489;-72
2023/03/17 09:03:19;;;;;;;2.40;1.23;;;14.60;46.70;;;;;;4974084;28;20438;-73
2023/03/17 09:05:47;;;;;;;2.17;0.93;;;14.60;45.50;;;;;;4975462;28;20450;-73
2023/03/17 09:08:14;;;;;;;2.93;1.10;;;14.70;47.80;;;;;;4977667;28;20450;-73
2023/03/17 09:10:42;;;;;;;2.40;1.00;;;15.00;49.00;;;;;;4977627;28;20470;-71
2023/03/17 09:13:09;;;;;;;2.40;1.20;;;15.10;47.90;;;;;;4977509;28;20799;-72
2023/03/17 09:15:36;;;;;;;2.00;1.10;;;15.10;46.90;;;;;;4977947;28;20486;-73
2023/03/17 09:18:03;;;;;;;2.10;1.10;;;15.20;47.70;;;;;;4977425;28;20457;-74
2023/03/17 09:20:30;;;;;;;2.87;1.30;;;15.40;47.30;;;;;;4977202;28;20454;-73
2023/03/17 09:22:56;;;;;;;2.10;1.10;;;15.60;47.40;;;;;;4977231;28;20454;-73
2023/03/17 09:25:23;;;;;;;2.83;1.10;;;15.80;45.50;;;;;;4977298;28;20501;-73
2023/03/17 09:27:52;;;;;;;2.00;0.97;;;15.90;47.70;;;;;;4976990;28;20971;-72
2023/03/17 09:30:19;;;;;;;2.50;1.20;;;15.70;47.60;;;;;;4977231;28;20449;-73
2023/03/17 09:32:45;;;;;;;2.70;1.30;;;15.80;47.90;;;;;;4977095;28;20882;-73
2023/03/17 09:35:12;;;;;;;2.10;1.00;;;15.80;46.80;;;;;;4977680;28;20490;-74
2023/03/17 09:37:39;;;;;;;2.37;1.13;;;15.80;44.70;;;;;;4977088;28;20458;-74
2023/03/17 09:40:08;;;;;;;2.00;0.90;;;15.90;44.60;;;;;;4977028;28;20504;-74
2023/03/17 09:42:46;;;;;;;2.70;1.03;;;15.40;45.10;;;;;;4976555;28;20489;-74
2023/03/17 09:45:27;;;;;;;2.63;1.23;;;15.40;45.20;;;;;;4977013;28;20470;-74
2023/03/17 09:48:09;;;;;;;2.07;1.10;;;15.40;46.30;;;;;;4976925;28;20435;-74
2023/03/17 09:50:44;;;;;;;2.53;1.10;;;15.40;46.20;;;;;;4976808;28;20537;-75
2023/03/17 09:53:17;;;;;;;2.40;0.97;;;15.40;47.30;;;;;;4976486;28;20931;-74
2023/03/17 09:55:45;;;;;;;2.40;1.00;;;15.50;46.00;;;;;;4976649;28;20549;-73
2023/03/17 09:58:12;;;;;;;3.07;1.17;;;15.50;47.30;;;;;;4976305;28;21014;-74
2023/03/17 10:00:40;;;;;;;2.40;1.00;;;15.50;47.40;;;;;;4976156;28;20927;-75
2023/03/17 10:03:11;;;;;;;2.60;1.00;;;15.10;47.70;;;;;;4977115;28;20442;-74
2023/03/17 10:05:38;;;;;;;2.10;1.00;;;14.90;48.90;;;;;;4976500;28;20442;-74
2023/03/17 10:08:14;;;;;;;2.77;1.20;;;15.00;49.20;;;;;;4976410;28;20537;-74
2023/03/17 10:10:46;;;;;;;2.40;1.20;;;15.20;48.90;;;;;;4976035;28;21007;-73
2023/03/17 10:13:26;;;;;;;2.27;1.13;;;15.20;48.20;;;;;;4977592;28;20443;-75
2023/03/17 10:15:57;;;;;;;2.50;1.30;;;15.30;48.90;;;;;;4976888;28;20891;-74
2023/03/17 10:18:28;;;;;;;2.53;1.37;;;15.60;49.70;;;;;;4975547;28;20493;-74
2023/03/17 10:20:59;;;;;;;2.20;1.23;;;15.80;48.80;;;;;;4976326;28;20474;-73
2023/03/17 10:23:29;;;;;;;2.70;1.13;;;16.00;48.90;;;;;;4976523;28;20434;-73
2023/03/17 10:25:59;;;;;;;2.00;1.00;;;16.10;48.40;;;;;;4975849;28;20951;-72
2023/03/17 10:28:29;;;;;;;2.23;1.00;;;16.20;48.80;;;;;;4975721;28;20858;-73
2023/03/17 10:31:06;;;;;;;2.73;1.07;;;16.30;47.60;;;;;;4976101;28;20466;-73
2023/03/17 10:33:33;;;;;;;2.13;1.00;;;16.20;47.60;;;;;;4976242;28;20456;-74
2023/03/17 10:36:08;;;;;;;2.47;1.10;;;16.10;47.40;;;;;;4976153;28;20536;-73
2023/03/17 10:38:35;;;;;;;2.10;1.00;;;16.10;47.80;;;;;;4976150;28;20999;-74
2023/03/17 10:41:07;;;;;;;2.30;1.00;;;16.00;47.20;;;;;;4975854;28;20513;-73
2023/03/17 10:43:38;;;;;;;2.20;0.87;;;16.10;47.20;;;;;;4976485;28;20434;-73
2023/03/17 10:46:20;;;;;;;2.27;0.87;;;16.10;47.80;;;;;;4975801;28;20437;-73
2023/03/17 10:48:52;;;;;;;1.90;0.83;;;16.20;47.50;;;;;;4975774;28;20513;-73
2023/03/17 10:51:25;;;;;;;2.40;1.10;;;16.20;47.20;;;;;;4975677;28;20544;-74
2023/03/17 10:53:53;;;;;;;1.90;0.70;;;16.40;47.50;;;;;;4975820;28;20435;-72
2023/03/17 10:56:24;;;;;;;2.30;0.80;;;16.50;46.50;;;;;;4975229;28;20897;-73
2023/03/17 10:58:53;;;;;;;2.10;0.90;;;16.60;47.00;;;;;;4975793;28;20492;-73
2023/03/17 11:01:28;;;;;;;2.43;1.10;;;16.60;47.50;;;;;;4976351;28;20497;-74
2023/03/17 11:03:56;;;;;;;2.10;1.00;;;16.80;46.80;;;;;;4975642;28;20474;-73
2023/03/17 11:06:35;;;;;;;1.90;0.80;;;16.80;45.70;;;;;;4975609;28;20457;-73
2023/03/17 11:09:09;;;;;;;2.93;1.10;;;17.00;46.30;;;;;;4976081;28;20434;-75
2023/03/17 11:11:44;;;;;;;2.67;0.90;;;17.00;46.10;;;;;;4975599;28;20473;-73
2023/03/17 11:14:14;;;;;;;1.90;0.80;;;17.20;45.40;;;;;;4975607;28;20437;-74
2023/03/17 11:16:52;;;;;;;2.30;0.87;;;17.20;45.60;;;;;;4975486;28;20486;-72
2023/03/17 11:19:21;;;;;;;2.67;1.43;;;17.50;45.70;;;;;;4975610;28;20521;-74
2023/03/17 11:21:53;;;;;;;2.70;1.50;;;17.50;49.40;;;;;;4975551;28;20470;-73
2023/03/17 11:24:25;;;;;;;2.97;1.10;;;17.40;48.90;;;;;;4975497;28;20441;-74
2023/03/17 11:26:57;;;;;;;2.00;1.10;;;17.40;49.30;;;;;;4975392;28;20431;-74
2023/03/17 11:29:37;;;;;;;2.27;1.10;;;17.50;49.40;;;;;;4975040;28;20494;-73
2023/03/17 11:32:20;;;;;;;3.67;1.00;;;17.50;48.20;;;;;;4975348;28;20470;-73
2023/03/17 11:35:00;;;;;;;3.07;1.23;;;17.60;47.80;;;;;;4975328;28;20911;-75
2023/03/17 11:37:43;;;;;;;3.13;2.13;;;17.80;49.80;;;;;;4975177;28;20474;-74
2023/03/17 11:40:17;;;;;;;3.07;1.90;;;18.00;51.90;;;;;;4975375;28;20438;-73
2023/03/17 11:42:55;;;;;;;3.00;1.50;;;18.00;52.60;;;;;;4975255;28;20474;-73
2023/03/17 11:45:28;;;;;;;3.40;2.00;;;17.90;52.00;;;;;;4975312;28;20434;-74
2023/03/17 11:48:12;;;;;;;3.20;1.60;;;18.00;52.30;;;;;;4974887;28;20490;-73
2023/03/17 11:50:44;;;;;;;2.37;1.60;;;18.00;52.10;;;;;;4975249;28;20505;-73
2023/03/17 11:53:31;;;;;;;3.07;1.60;;;18.20;51.90;;;;;;4975507;28;20495;-74
2023/03/17 11:56:03;;;;;;;2.30;1.50;;;18.30;50.50;;;;;;4974982;28;20466;-73
2023/03/17 11:58:35;;;;;;;2.23;1.37;;;18.40;50.70;;;;;;4975036;28;20441;-74
2023/03/17 12:01:07;;;;;;;2.50;1.50;;;18.50;50.40;;;;;;4974630;28;21017;-74
2023/03/17 12:03:42;;;;;;;2.40;1.37;;;18.60;50.40;;;;;;4974830;28;20843;-73
2023/03/17 12:06:14;;;;;;;2.20;1.33;;;18.70;50.10;;;;;;4974632;28;21064;-74
2023/03/17 12:08:45;;;;;;;3.10;1.80;;;18.70;49.20;;;;;;4975009;28;20908;-73
2023/03/17 12:11:15;;;;;;;2.50;1.20;;;18.60;50.50;;;;;;4974673;28;20991;-74
2023/03/17 12:13:46;;;;;;;2.40;1.20;;;18.60;50.50;;;;;;4974537;28;20900;-73
2023/03/17 12:16:18;;;;;;;2.23;1.37;;;18.70;50.30;;;;;;4974695;28;20470;-74
2023/03/17 12:18:55;;;;;;;2.30;1.37;;;18.70;49.70;;;;;;4974660;28;20525;-73
2023/03/17 12:21:29;;;;;;;2.40;1.33;;;18.90;50.20;;;;;;4974573;28;20465;-74
2023/03/17 12:24:01;;;;;;;2.90;1.60;;;19.00;49.30;;;;;;4974629;28;20439;-73
2023/03/17 12:26:34;;;;;;;3.53;1.53;;;19.10;49.20;;;;;;4974300;28;20499;-74
2023/03/17 12:29:06;;;;;;;2.90;1.33;;;19.00;48.50;;;;;;4974206;28;20959;-73
2023/03/17 12:31:36;;;;;;;2.73;1.10;;;18.90;49.70;;;;;;4974484;28;20470;-74
2023/03/17 12:34:09;;;;;;;2.63;1.23;;;18.90;49.50;;;;;;4974316;28;20947;-73
2023/03/17 12:36:37;;;;;;;3.20;1.30;;;18.90;49.30;;;;;;4974406;28;20474;-74
2023/03/17 12:39:09;;;;;;;2.43;1.50;;;18.90;49.40;;;;;;4974508;28;20533;-73
2023/03/17 12:42:10;;;;;;;2.57;1.30;;;18.90;49.00;;;;;;4977347;28;20532;-74
2023/03/17 12:44:57;;;;;;;2.50;1.50;;;18.90;49.60;;;;;;4979064;28;20429;-74
2023/03/17 12:47:38;;;;;;;3.20;1.70;;;18.90;49.80;;;;;;4978621;28;20426;-74
2023/03/17 12:50:39;;;;;;;2.87;1.30;;;19.10;49.80;;;;;;4978836;28;20546;-74
2023/03/17 12:53:28;;;;;;;2.10;1.27;;;19.10;49.50;;;;;;4978389;28;20437;-74
2023/03/17 12:56:00;;;;;;;3.50;1.70;;;19.40;49.50;;;;;;4978115;28;20474;-74
2023/03/17 12:58:32;;;;;;;2.47;1.27;;;19.70;49.20;;;;;;4977913;28;20438;-75
2023/03/17 13:01:09;;;;;;;2.37;1.30;;;19.70;49.00;;;;;;4977921;28;20580;-74
2023/03/17 13:03:45;;;;;;;4.73;1.63;;;19.50;49.10;;;;;;4978026;28;20457;-74
2023/03/17 13:06:19;;;;;;;2.50;1.50;;;19.40;48.70;;;;;;4978337;28;20495;-74
2023/03/17 13:08:50;;;;;;;5.53;1.50;;;19.30;47.70;;;;;;4977719;28;20946;-74
2023/03/17 13:11:26;;;;;;;2.40;1.10;;;19.40;49.70;;;;;;4977932;28;20478;-74
2023/03/17 13:14:05;;;;;;;3.03;1.47;;;19.30;49.10;;;;;;4978348;28;20438;-74
2023/03/17 13:16:33;;;;;;;2.00;1.03;;;19.50;48.00;;;;;;4977590;28;20523;-74
2023/03/17 13:19:17;;;;;;;3.40;1.50;;;19.70;48.80;;;;;;4977822;28;20450;-74
2023/03/17 13:21:49;;;;;;;3.47;1.30;;;19.70;49.30;;;;;;4977608;28;20474;-74
2023/03/17 13:24:47;;;;;;;4.60;1.97;;;19.80;48.60;;;;;;4978227;28;20441;-74
2023/03/17 13:27:35;;;;;;;3.53;1.30;;;19.90;47.70;;;;;;4977279;28;20926;-74
2023/03/17 13:30:35;;;;;;;3.17;1.77;;;19.70;47.40;;;;;;4977242;28;20460;-74
2023/03/17 13:33:26;;;;;;;3.90;1.53;;;19.50;48.10;;;;;;4977248;28;20493;-74
2023/03/17 13:36:17;;;;;;;4.87;1.60;;;19.60;48.80;;;;;;4977284;28;20466;-73
2023/03/17 13:39:10;;;;;;;5.13;1.40;;;19.70;49.40;;;;;;4977185;28;20434;-74
2023/03/17 13:42:07;;;;;;;3.20;1.63;;;19.60;49.30;;;;;;4977040;28;20466;-74
2023/03/17 13:44:46;;;;;;;3.73;1.90;;;19.70;49.20;;;;;;4976169;28;20457;-74
2023/03/17 13:47:27;;;;;;;3.50;1.50;;;19.80;48.10;;;;;;4977421;28;20426;-74
2023/03/17 13:50:01;;;;;;;3.60;1.50;;;19.80;47.60;;;;;;4977330;28;20436;-73
2023/03/17 13:52:32;;;;;;;2.40;1.40;;;20.00;48.20;;;;;;4977016;28;20462;-74
2023/03/17 13:55:04;;;;;;;4.47;1.10;;;20.00;47.00;;;;;;4976662;28;20481;-74
2023/03/17 13:57:36;;;;;;;2.87;1.30;;;20.10;44.50;;;;;;4976739;28;20473;-74
2023/03/17 14:00:20;;;;;;;2.33;1.00;;;20.30;45.10;;;;;;4976769;28;20446;-74
2023/03/17 14:02:48;;;;;;;2.30;1.23;;;20.60;44.40;;;;;;4976911;28;20488;-74
2023/03/17 14:05:22;;;;;;;2.13;1.10;;;21.00;43.90;;;;;;4976747;28;20866;-74
2023/03/17 14:07:54;;;;;;;2.50;1.10;;;21.10;42.00;;;;;;4977591;28;20829;-74
2023/03/17 14:10:24;;;;;;;2.00;0.90;;;21.10;40.50;;;;;;4976526;28;20430;-75
2023/03/17 14:12:59;;;;;;;3.03;1.00;;;21.20;40.70;;;;;;4976461;28;20459;-74
2023/03/17 14:15:30;;;;;;;2.67;1.00;;;21.40;40.50;;;;;;4976545;28;20441;-74
2023/03/17 14:18:03;;;;;;;2.33;1.03;;;21.40;40.40;;;;;;4976594;28;20470;-74
2023/03/17 14:20:31;;;;;;;3.17;1.30;;;21.50;40.90;;;;;;4976384;28;20442;-75
2023/03/17 14:23:00;;;;;;;2.63;1.30;;;21.60;41.90;;;;;;4976592;28;20458;-74
2023/03/17 14:25:32;;;;;;;3.70;1.47;;;21.40;42.80;;;;;;4976557;28;20458;-74
2023/03/17 14:28:00;;;;;;;2.50;1.57;;;21.50;43.80;;;;;;4977360;28;20423;-74
2023/03/17 14:30:29;;;;;;;3.30;1.63;;;21.50;44.50;;;;;;4976442;28;20454;-75
2023/03/17 14:33:03;;;;;;;3.73;1.10;;;21.40;45.00;;;;;;4976691;28;20450;-74
2023/03/17 14:35:33;;;;;;;2.83;1.30;;;21.40;44.00;;;;;;4976491;28;20435;-74
2023/03/17 14:38:00;;;;;;;2.60;1.20;;;21.10;42.20;;;;;;4977208;28;20545;-74
2023/03/17 14:40:29;;;;;;;4.30;1.30;;;20.90;40.40;;;;;;4976984;28;20513;-75
2023/03/17 14:42:56;;;;;;;2.70;1.40;;;20.60;41.30;;;;;;4976848;28;20497;-74
2023/03/17 14:45:29;;;;;;;2.83;1.30;;;20.70;41.10;;;;;;4976585;28;20450;-74
2023/03/17 14:47:56;;;;;;;2.13;1.00;;;20.80;40.40;;;;;;4976818;28;20439;-74
2023/03/17 14:50:26;;;;;;;2.53;0.90;;;20.80;40.90;;;;;;4976199;28;20520;-75
2023/03/17 14:52:57;;;;;;;2.20;1.00;;;21.00;40.40;;;;;;4976685;28;20450;-72
2023/03/17 14:55:32;;;;;;;2.97;1.30;;;21.20;41.10;;;;;;4976281;28;20488;-74
2023/03/17 14:58:08;;;;;;;2.33;1.10;;;21.20;41.90;;;;;;4976262;28;20466;-74
2023/03/17 15:00:37;;;;;;;2.87;1.40;;;21.10;42.30;;;;;;4976205;28;20472;-74
2023/03/17 15:03:16;;;;;;;3.10;1.40;;;20.90;43.00;;;;;;4975719;28;20443;-74
2023/03/17 15:05:44;;;;;;;3.20;1.50;;;20.80;43.60;;;;;;4975930;28;20924;-74
2023/03/17 15:08:41;;;;;;;5.27;1.70;;;20.60;44.40;;;;;;4976378;28;20482;-74
2023/03/17 15:11:14;;;;;;;3.00;1.30;;;20.40;45.30;;;;;;4976033;28;20532;-74
2023/03/17 15:13:41;;;;;;;2.97;1.23;;;20.30;45.90;;;;;;4976355;28;20489;-74
2023/03/17 15:16:17;;;;;;;2.47;1.40;;;20.30;46.10;;;;;;4975919;28;20943;-74
2023/03/17 15:18:45;;;;;;;2.87;1.70;;;20.40;46.20;;;;;;4976146;28;20453;-75
2023/03/17 15:21:32;;;;;;;2.60;1.43;;;20.30;46.60;;;;;;4976043;28;20573;-74
2023/03/17 15:24:04;;;;;;;2.80;1.23;;;20.30;45.90;;;;;;4976108;28;20481;-74
2023/03/17 15:26:31;;;;;;;2.40;1.03;;;20.40;45.70;;;;;;4974876;28;20931;-73
2023/03/17 15:28:59;;;;;;;2.63;1.20;;;20.20;44.50;;;;;;4975043;28;20943;-74
2023/03/17 15:31:28;;;;;;;2.10;1.23;;;20.10;44.00;;;;;;4975021;28;20500;-73
2023/03/17 15:33:56;;;;;;;6.13;2.30;;;19.90;44.20;;;;;;4975199;28;20454;-73
2023/03/17 15:36:23;;;;;;;3.93;1.23;;;19.90;44.30;;;;;;4974607;28;20944;-74
2023/03/17 15:38:50;;;;;;;4.00;1.40;;;19.80;45.30;;;;;;4975018;28;20454;-73
2023/03/17 15:41:18;;;;;;;3.43;1.33;;;19.90;45.00;;;;;;4974947;28;20470;-73
2023/03/17 15:43:45;;;;;;;4.87;1.80;;;20.00;45.30;;;;;;4975134;28;20450;-73
2023/03/17 15:46:20;;;;;;;3.90;1.30;;;20.20;45.60;;;;;;4974838;28;20505;-73
2023/03/17 15:48:47;;;;;;;3.53;1.60;;;20.30;45.20;;;;;;4974825;28;20435;-73
2023/03/17 15:51:15;;;;;;;4.20;1.13;;;20.40;44.90;;;;;;4974701;28;20470;-73
2023/03/17 15:53:41;;;;;;;3.20;1.30;;;20.40;44.60;;;;;;4974832;28;20549;-73
2023/03/17 15:56:15;;;;;;;2.47;0.97;;;20.30;44.40;;;;;;4974893;28;20854;-73
2023/03/17 15:58:43;;;;;;;2.33;1.07;;;20.20;43.90;;;;;;4973495;28;20553;-72
2023/03/17 16:01:12;;;;;;;2.93;1.20;;;20.00;44.50;;;;;;4974342;28;20490;-74
2023/03/17 16:03:40;;;;;;;4.70;1.40;;;19.70;44.80;;;;;;4974618;28;20447;-74
2023/03/17 16:06:14;;;;;;;3.03;1.13;;;19.60;45.60;;;;;;4974303;28;20940;-73
2023/03/17 16:08:41;;;;;;;2.57;1.40;;;19.70;44.50;;;;;;4974503;28;20493;-72
2023/03/17 16:11:15;;;;;;;2.20;1.00;;;19.80;46.10;;;;;;4973926;28;20998;-74
2023/03/17 16:13:43;;;;;;;4.60;1.63;;;19.90;46.20;;;;;;4974175;28;20805;-73
2023/03/17 16:16:21;;;;;;;2.10;1.10;;;20.00;46.10;;;;;;4978973;28;20450;-73
2023/03/17 16:18:49;;;;;;;3.30;1.20;;;19.90;46.60;;;;;;4978451;28;20469;-74
2023/03/17 16:21:17;;;;;;;2.90;1.20;;;19.90;46.20;;;;;;4978351;28;20474;-73
2023/03/17 16:23:45;;;;;;;2.40;1.10;;;19.80;46.50;;;;;;4978359;28;20456;-74
2023/03/17 16:26:12;;;;;;;2.10;1.07;;;19.80;46.00;;;;;;4978317;28;20450;-73
2023/03/17 16:28:38;;;;;;;2.70;1.70;;;19.90;46.70;;;;;;4978430;28;20449;-74
2023/03/17 16:31:19;;;;;;;2.30;1.30;;;19.90;46.60;;;;;;4978619;28;20520;-74
2023/03/17 16:33:46;;;;;;;3.47;1.47;;;19.90;49.00;;;;;;4978266;28;20449;-73
2023/03/17 16:36:16;;;;;;;2.97;1.87;;;19.90;49.30;;;;;;4978108;28;20799;-73
2023/03/17 16:38:43;;;;;;;2.50;1.23;;;19.90;48.30;;;;;;4978038;28;20532;-73
2023/03/17 16:41:17;;;;;;;3.17;1.30;;;19.90;48.50;;;;;;4978111;28;20461;-73
2023/03/17 16:43:46;;;;;;;2.60;1.50;;;19.90;48.40;;;;;;4978332;28;20540;-73
2023/03/17 16:46:14;;;;;;;3.90;2.03;;;19.90;48.60;;;;;;4978211;28;20505;-74
2023/03/17 16:48:40;;;;;;;5.43;2.33;;;19.80;49.90;;;;;;4978466;28;20501;-71
2023/03/17 16:51:07;;;;;;;5.10;1.80;;;19.70;50.50;;;;;;4977978;28;20478;-74
2023/03/17 16:53:34;;;;;;;5.23;1.70;;;19.70;51.70;;;;;;4978437;28;20449;-74
2023/03/17 16:56:01;;;;;;;3.70;2.00;;;19.60;51.40;;;;;;4978476;28;20481;-73
2023/03/17 16:58:31;;;;;;;2.67;1.60;;;19.50;51.10;;;;;;4978510;28;20906;-75
2023/03/17 17:01:00;;;;;;;5.83;2.20;;;19.50;51.60;;;;;;4978009;28;20505;-73
2023/03/17 17:03:29;;;;;;;8.60;2.13;;;19.40;52.20;;;;;;4978268;28;20434;-75
2023/03/17 17:05:56;;;;;;;5.93;2.77;;;19.30;52.20;;;;;;4977880;28;20970;-73